createdAt,value
2022-08-03T00:00:20.359Z,98644.84
2022-08-03T00:02:47.076Z,98645.16
2022-08-03T00:05:13.580Z,98639.59
2022-08-03T00:07:41.180Z,98644.44
2022-08-03T00:10:08.119Z,98640.72
2022-08-03T00:12:36.323Z,98642.06
2022-08-03T00:15:03.172Z,98639.22
2022-08-03T00:17:52.131Z,98640.00
2022-08-03T00:20:19.982Z,98643.25
2022-08-03T00:22:46.533Z,98647.22
2022-08-03T00:25:13.375Z,98646.75
2022-08-03T00:27:39.877Z,98653.66
2022-08-03T00:30:07.295Z,98654.72
2022-08-03T00:32:33.889Z,98652.34
2022-08-03T00:35:00.414Z,98652.66
2022-08-03T00:37:41.704Z,98651.63
2022-08-03T00:40:11.393Z,98650.03
2022-08-03T00:42:58.825Z,98652.94
2022-08-03T00:45:36.745Z,98652.94
2022-08-03T00:48:04.898Z,98652.69
2022-08-03T00:50:35.900Z,98652.41
2022-08-03T00:53:06.289Z,98650.31
2022-08-03T00:55:33.050Z,98649.50
2022-08-03T00:57:59.702Z,98653.22
2022-08-03T01:00:27.665Z,98646.38
2022-08-03T01:02:55.793Z,98650.91
2022-08-03T01:05:22.661Z,98650.91
2022-08-03T01:08:25.924Z,98650.66
2022-08-03T01:12:01.193Z,98649.03
2022-08-03T01:14:38.368Z,98646.94
2022-08-03T01:17:16.928Z,98659.38
2022-08-03T01:19:49.120Z,98657.28
2022-08-03T01:22:44.884Z,98658.34
2022-08-03T01:25:23.424Z,98657.28
2022-08-03T01:28:11.368Z,98654.13
2022-08-03T01:30:42.048Z,98658.63
2022-08-03T01:33:35.052Z,98656.81
2022-08-03T01:36:05.465Z,98662.06
2022-08-03T01:38:42.048Z,98649.41
2022-08-03T01:41:13.711Z,98650.44
2022-08-03T01:44:28.304Z,98650.97
2022-08-03T01:46:32.865Z,98650.19
2022-08-03T01:49:01.204Z,98648.38
2022-08-03T01:51:58.506Z,98646.75
2022-08-03T01:54:27.463Z,98651.50
2022-08-03T01:56:57.518Z,98647.28
2022-08-03T01:59:26.332Z,98643.81
2022-08-03T02:02:28.835Z,98637.50
2022-08-03T02:04:42.533Z,98639.59
2022-08-03T02:07:10.427Z,98636.69
2022-08-03T02:09:41.505Z,98641.44
2022-08-03T02:12:13.964Z,98639.59
2022-08-03T02:14:42.322Z,98638.03
2022-08-03T02:17:10.593Z,98637.75
2022-08-03T02:19:38.590Z,98639.06
2022-08-03T02:22:08.433Z,98641.19
2022-08-03T02:24:35.145Z,98636.16
2022-08-03T02:27:06.157Z,98642.72
2022-08-03T02:29:39.368Z,98640.63
2022-08-03T02:32:10.489Z,98640.13
2022-08-03T02:34:39.448Z,98630.38
2022-08-03T02:37:08.414Z,98633.53
2022-08-03T02:39:36.836Z,98643.03
2022-08-03T02:42:05.571Z,98631.97
2022-08-03T02:44:34.741Z,98630.38
2022-08-03T02:47:05.146Z,98631.94
2022-08-03T02:49:41.127Z,98626.38
2022-08-03T02:52:19.872Z,98627.94
2022-08-03T02:54:49.189Z,98626.09
2022-08-03T02:57:17.354Z,98623.69
2022-08-03T02:59:44.649Z,98621.34
2022-08-03T03:02:12.661Z,98627.84
2022-08-03T03:04:41.207Z,98628.59
2022-08-03T03:07:28.853Z,98643.56
2022-08-03T03:09:58.353Z,98637.22
2022-08-03T03:12:26.370Z,98636.69
2022-08-03T03:14:52.903Z,98643.28
2022-08-03T03:17:21.137Z,98645.66
2022-08-03T03:19:51.051Z,98639.38
2022-08-03T03:22:18.774Z,98638.91
2022-08-03T03:24:47.265Z,98644.72
2022-08-03T03:27:16.495Z,98635.56
2022-08-03T03:29:43.920Z,98633.94
2022-08-03T03:32:10.782Z,98641.25
2022-08-03T03:34:37.733Z,98639.75
2022-08-03T03:37:05.235Z,98651.66
2022-08-03T03:39:32.043Z,98644.81
2022-08-03T03:42:00.226Z,98649.78
2022-08-03T03:44:28.882Z,98644.75
2022-08-03T03:46:57.795Z,98636.09
2022-08-03T03:49:24.889Z,98646.59
2022-08-03T03:51:55.578Z,98641.34
2022-08-03T03:54:22.147Z,98644.22
2022-08-03T03:56:52.365Z,98635.22
2022-08-03T03:59:18.939Z,98649.19
2022-08-03T04:01:45.879Z,98646.63
2022-08-03T04:04:31.021Z,98649.03
2022-08-03T04:07:15.777Z,98648.50
2022-08-03T04:10:14.423Z,98642.97
2022-08-03T04:12:49.872Z,98644.28
2022-08-03T04:15:20.339Z,98649.81
2022-08-03T04:17:48.183Z,98645.59
2022-08-03T04:20:15.741Z,98649.84
2022-08-03T04:22:42.615Z,98650.66
2022-08-03T04:25:16.892Z,98651.69
2022-08-03T04:27:43.990Z,98653.53
2022-08-03T04:30:11.775Z,98652.78
2022-08-03T04:32:44.148Z,98664.91
2022-08-03T04:35:12.459Z,98656.22
2022-08-03T04:37:43.172Z,98655.16
2022-08-03T04:40:14.857Z,98663.59
2022-08-03T04:42:43.434Z,98662.28
2022-08-03T04:45:14.994Z,98665.66
2022-08-03T04:47:42.442Z,98661.22
2022-08-03T04:50:15.034Z,98662.22
2022-08-03T04:52:43.560Z,98663.81
2022-08-03T04:55:10.374Z,98669.41
2022-08-03T04:57:37.023Z,98675.50
2022-08-03T05:13:12.109Z,98674.09
2022-08-03T05:15:43.173Z,98674.09
2022-08-03T05:18:13.997Z,98677.78
2022-08-03T05:20:40.858Z,98677.53
2022-08-03T05:23:07.397Z,98685.97
2022-08-03T05:25:33.863Z,98687.25
2022-08-03T05:28:00.670Z,98695.22
2022-08-03T05:30:33.436Z,98694.19
2022-08-03T05:33:02.264Z,98692.09
2022-08-03T05:36:00.984Z,98694.19
2022-08-03T05:38:24.244Z,98695.28
2022-08-03T05:41:22.581Z,98701.06
2022-08-03T05:43:50.836Z,98695.28
2022-08-03T05:46:17.492Z,98688.69
2022-08-03T05:48:46.755Z,98697.94
2022-08-03T05:51:13.489Z,98696.88
2022-08-03T05:53:41.714Z,98696.88
2022-08-03T05:56:13.583Z,98697.44
2022-08-03T05:58:42.267Z,98697.72
2022-08-03T06:01:08.883Z,98698.50
2022-08-03T06:03:38.013Z,98692.97
2022-08-03T06:06:04.613Z,98694.25
2022-08-03T06:08:31.170Z,98690.84
2022-08-03T06:11:00.760Z,98694.50
2022-08-03T06:13:27.272Z,98700.84
2022-08-03T06:15:53.812Z,98696.03
2022-08-03T06:18:20.440Z,98687.56
2022-08-03T06:20:49.307Z,98687.28
2022-08-03T06:23:17.991Z,98694.41
2022-08-03T06:25:45.405Z,98688.78
2022-08-03T06:31:01.007Z,98696.34
2022-08-03T06:34:30.151Z,98687.06
2022-08-03T06:36:14.981Z,98689.34
2022-08-03T06:38:41.549Z,98685.09
2022-08-03T06:41:08.097Z,98692.72
2022-08-03T06:43:38.006Z,98688.09
2022-08-03T06:46:24.714Z,98688.81
2022-08-03T06:48:53.148Z,98681.28
2022-08-03T06:51:19.858Z,98684.84
2022-08-03T06:53:46.544Z,98688.97
2022-08-03T06:56:13.496Z,98684.03
2022-08-03T06:58:40.173Z,98687.38
2022-08-03T07:01:09.297Z,98692.56
2022-08-03T07:03:35.874Z,98692.66
2022-08-03T07:06:18.722Z,98688.69
2022-08-03T07:08:45.289Z,98694.81
2022-08-03T07:11:11.956Z,98684.78
2022-08-03T07:13:41.163Z,98690.09
2022-08-03T07:16:07.731Z,98687.97
2022-08-03T07:18:34.356Z,98686.88
2022-08-03T07:21:00.864Z,98683.88
2022-08-03T07:23:27.343Z,98688.16
2022-08-03T07:25:53.781Z,98679.50
2022-08-03T07:28:20.727Z,98676.84
2022-08-03T07:30:47.776Z,98680.88
2022-08-03T07:33:15.081Z,98683.56
2022-08-03T07:35:49.505Z,98678.69
2022-08-03T07:38:16.340Z,98683.56
2022-08-03T07:43:13.100Z,98683.88
2022-08-03T07:45:39.712Z,98675.34
2022-08-03T07:48:11.659Z,98681.69
2022-08-03T07:50:38.968Z,98679.41
2022-08-03T07:53:05.805Z,98676.81
2022-08-03T07:55:32.701Z,98670.66
2022-08-03T07:58:10.065Z,98672.34
2022-08-03T08:00:37.059Z,98673.00
2022-08-03T08:03:04.729Z,98665.56
2022-08-03T08:05:33.957Z,98669.94
2022-08-03T08:08:03.990Z,98665.25
2022-08-03T08:10:31.235Z,98663.84
2022-08-03T08:13:00.105Z,98660.06
2022-08-03T08:15:26.717Z,98666.59
2022-08-03T08:17:56.552Z,98668.94
2022-08-03T08:20:31.327Z,98663.09
2022-08-03T08:23:03.635Z,98662.72
2022-08-03T08:25:50.321Z,98660.19
2022-08-03T08:28:32.947Z,98656.75
2022-08-03T08:31:02.279Z,98656.50
2022-08-03T08:33:42.081Z,98648.91
2022-08-03T08:36:15.951Z,98654.88
2022-08-03T08:38:44.557Z,98645.03
2022-08-03T08:41:12.453Z,98649.53
2022-08-03T08:43:42.219Z,98642.88
2022-08-03T08:46:23.145Z,98645.16
2022-08-03T08:48:51.833Z,98650.22
2022-08-03T08:51:20.295Z,98649.09
2022-08-03T08:53:51.448Z,98648.88
2022-08-03T08:56:26.551Z,98644.41
2022-08-03T08:59:01.166Z,98639.22
2022-08-03T09:01:33.777Z,98639.47
2022-08-03T09:04:00.381Z,98630.69
2022-08-03T09:06:26.984Z,98639.13
2022-08-03T09:08:54.149Z,98634.13
2022-08-03T09:12:01.052Z,98632.72
2022-08-03T09:14:36.982Z,98632.72
2022-08-03T09:17:06.052Z,98622.97
2022-08-03T09:19:37.656Z,98622.84
2022-08-03T09:22:16.624Z,98624.00
2022-08-03T09:25:23.233Z,98630.69
2022-08-03T09:27:50.461Z,98632.94
2022-08-03T09:30:33.806Z,98631.09
2022-08-03T09:33:08.371Z,98626.97
2022-08-03T09:35:54.208Z,98625.13
2022-08-03T09:38:26.481Z,98624.53
2022-08-03T09:40:59.515Z,98617.66
2022-08-03T09:43:28.555Z,98617.28
2022-08-03T09:46:07.298Z,98616.03
2022-08-03T09:48:35.013Z,98622.81
2022-08-03T09:51:14.142Z,98619.03
2022-08-03T09:53:59.323Z,98619.41
2022-08-03T09:56:47.892Z,98616.81
2022-08-03T09:59:24.209Z,98611.91
2022-08-03T10:01:53.350Z,98609.94
2022-08-03T10:04:20.391Z,98608.75
2022-08-03T10:07:06.193Z,98609.41
2022-08-03T10:09:35.976Z,98606.16
2022-08-03T10:12:13.538Z,98607.31
2022-08-03T10:14:45.303Z,98604.56
2022-08-03T10:17:14.443Z,98592.66
2022-08-03T10:19:43.793Z,98589.78
2022-08-03T10:22:14.038Z,98598.63
2022-08-03T10:25:00.996Z,98589.69
2022-08-03T10:27:43.400Z,98584.69
2022-08-03T10:30:11.723Z,98583.13
2022-08-03T10:32:44.809Z,98586.72
2022-08-03T10:35:19.637Z,98585.53
2022-08-03T10:38:23.087Z,98588.72
2022-08-03T10:40:58.778Z,98584.72
2022-08-03T10:43:30.848Z,98589.38
2022-08-03T10:45:58.108Z,98579.78
2022-08-03T10:48:30.737Z,98577.50
2022-08-03T10:50:57.670Z,98566.03
2022-08-03T10:53:40.348Z,98562.84
2022-08-03T10:56:49.670Z,98561.00
2022-08-03T10:59:27.529Z,98560.97
2022-08-03T11:01:58.651Z,98560.19
2022-08-03T11:04:29.585Z,98556.25
2022-08-03T11:07:28.390Z,98555.81
2022-08-03T11:09:56.547Z,98556.38
2022-08-03T11:12:30.529Z,98557.47
2022-08-03T11:15:04.601Z,98556.16
2022-08-03T11:17:32.849Z,98548.88
2022-08-03T11:19:59.773Z,98541.00
2022-08-03T11:22:50.955Z,98540.19
2022-08-03T11:25:54.798Z,98544.00
2022-08-03T11:28:29.067Z,98534.09
2022-08-03T11:30:57.097Z,98537.66
2022-08-03T11:33:31.133Z,98536.06
2022-08-03T11:36:02.516Z,98518.22
2022-08-03T11:38:29.138Z,98530.88
2022-08-03T11:40:58.441Z,98529.28
2022-08-03T11:43:33.084Z,98522.38
2022-08-03T11:46:06.838Z,98523.00
2022-08-03T11:48:37.476Z,98524.66
2022-08-03T11:51:06.546Z,98524.66
2022-08-03T11:53:33.575Z,98519.19
2022-08-03T11:56:12.978Z,98513.88
2022-08-03T11:59:16.737Z,98511.47
2022-08-03T12:01:36.649Z,98519.81
2022-08-03T12:04:10.776Z,98517.09
2022-08-03T12:06:55.794Z,98512.97
2022-08-03T12:09:22.512Z,98508.84
2022-08-03T12:11:56.223Z,98510.38
2022-08-03T12:14:50.294Z,98500.19
2022-08-03T12:17:15.102Z,98498.31
2022-08-03T12:19:43.137Z,98496.41
2022-08-03T12:22:09.669Z,98499.88
2022-08-03T12:24:47.490Z,98501.06
2022-08-03T12:27:24.224Z,98496.34
2022-08-03T12:29:57.251Z,98504.06
2022-08-03T12:32:26.801Z,98498.94
2022-08-03T12:34:53.442Z,98493.19
2022-08-03T12:37:23.202Z,98489.81
2022-08-03T12:40:02.178Z,98485.97
2022-08-03T12:42:38.424Z,98482.19
2022-08-03T12:45:28.154Z,98484.56
2022-08-03T12:48:02.182Z,98483.03
2022-08-03T12:50:34.095Z,98485.59
2022-08-03T12:53:03.214Z,98479.34
2022-08-03T12:55:57.244Z,98479.75
2022-08-03T12:58:34.030Z,98472.00
2022-08-03T13:01:01.849Z,98470.13
2022-08-03T13:03:50.343Z,98469.03
2022-08-03T13:06:28.435Z,98462.50
2022-08-03T13:09:06.314Z,98455.53
2022-08-03T13:11:55.507Z,98458.69
2022-08-03T13:14:20.741Z,98451.25
2022-08-03T13:16:51.405Z,98446.66
2022-08-03T13:19:18.100Z,98454.00
2022-08-03T13:22:01.716Z,98448.59
2022-08-03T13:24:31.717Z,98455.78
2022-08-03T13:26:59.333Z,98447.28
2022-08-03T13:29:26.211Z,98452.41
2022-08-03T13:31:52.868Z,98451.66
2022-08-03T13:34:23.045Z,98442.72
2022-08-03T13:39:57.244Z,98443.44
2022-08-03T13:42:28.601Z,98438.88
2022-08-03T13:44:55.286Z,98433.84
2022-08-03T13:47:22.156Z,98436.16
2022-08-03T13:49:54.361Z,98432.66
2022-08-03T13:52:33.269Z,98423.38
2022-08-03T13:55:00.578Z,98441.97
2022-08-03T13:58:02.670Z,98434.47
2022-08-03T14:00:26.524Z,98422.41
2022-08-03T14:03:01.846Z,98423.22
2022-08-03T14:05:33.535Z,98420.94
2022-08-03T14:08:04.168Z,98421.31
2022-08-03T14:10:36.691Z,98415.91
2022-08-03T14:13:04.442Z,98417.84
2022-08-03T14:15:37.778Z,98415.13
2022-08-03T14:18:07.068Z,98420.06
2022-08-03T14:20:47.709Z,98425.16
2022-08-03T14:23:20.256Z,98409.31
2022-08-03T14:25:56.274Z,98406.31
2022-08-03T14:28:26.855Z,98409.66
2022-08-03T14:30:55.770Z,98409.41
2022-08-03T14:33:22.950Z,98397.81
2022-08-03T14:35:50.245Z,98388.91
2022-08-03T14:38:17.905Z,98389.34
2022-08-03T14:40:44.772Z,98382.34
2022-08-03T14:43:14.211Z,98381.16
2022-08-03T14:45:41.424Z,98381.16
2022-08-03T14:50:28.714Z,98385.03
2022-08-03T14:50:55.373Z,98392.78
2022-08-03T14:53:22.790Z,98385.41
2022-08-03T14:55:51.539Z,98384.25
2022-08-03T14:58:23.044Z,98378.44
2022-08-03T15:00:51.880Z,98377.31
2022-08-03T15:03:23.004Z,98371.88
2022-08-03T15:05:51.057Z,98372.25
2022-08-03T15:08:17.649Z,98365.25
2022-08-03T15:10:45.347Z,98362.19
2022-08-03T15:13:13.292Z,98360.19
2022-08-03T15:15:40.308Z,98358.63
2022-08-03T15:18:07.200Z,98354.28
2022-08-03T15:20:43.877Z,98352.69
2022-08-03T15:23:18.332Z,98353.41
2022-08-03T15:26:03.567Z,98345.19
2022-08-03T15:28:37.470Z,98350.91
2022-08-03T15:31:05.888Z,98334.50
2022-08-03T15:33:32.783Z,98338.84
2022-08-03T15:36:01.935Z,98341.84
2022-08-03T15:38:28.555Z,98338.31
2022-08-03T15:40:55.588Z,98334.56
2022-08-03T15:43:23.514Z,98331.03
2022-08-03T15:46:12.816Z,98325.72
2022-08-03T15:48:37.330Z,98330.00
2022-08-03T15:51:05.314Z,98330.63
2022-08-03T15:53:31.805Z,98329.28
2022-08-03T15:56:05.242Z,98323.84
2022-08-03T15:59:09.446Z,98329.31
2022-08-03T16:01:25.443Z,98329.47
2022-08-03T16:03:52.172Z,98326.16
2022-08-03T16:06:18.825Z,98321.50
2022-08-03T16:08:56.617Z,98317.00
2022-08-03T16:11:23.443Z,98310.50
2022-08-03T16:14:13.072Z,98308.88
2022-08-03T16:16:42.339Z,98307.03
2022-08-03T16:19:09.008Z,98301.63
2022-08-03T16:21:47.310Z,98306.25
2022-08-03T16:24:17.479Z,98297.66
2022-08-03T16:26:50.881Z,98301.72
2022-08-03T16:29:22.324Z,98301.34
2022-08-03T16:31:50.965Z,98299.72
2022-08-03T16:34:18.064Z,98300.19
2022-08-03T16:36:45.662Z,98308.75
2022-08-03T16:39:12.455Z,98306.94
2022-08-03T16:41:53.923Z,98292.09
2022-08-03T16:44:28.912Z,98299.44
2022-08-03T16:46:55.694Z,98301.00
2022-08-03T16:49:55.396Z,98301.53
2022-08-03T16:52:10.460Z,98304.09
2022-08-03T16:54:39.716Z,98304.06
2022-08-03T16:57:07.215Z,98295.63
2022-08-03T16:59:36.562Z,98297.38
2022-08-03T17:02:10.186Z,98300.59
2022-08-03T17:04:40.387Z,98304.09
2022-08-03T17:07:08.948Z,98302.16
2022-08-03T17:09:46.775Z,98306.38
2022-08-03T17:12:16.791Z,98300.94
2022-08-03T17:14:44.841Z,98310.94
2022-08-03T17:17:17.899Z,98307.78
2022-08-03T17:19:47.441Z,98308.47
2022-08-03T17:22:23.888Z,98314.97
2022-08-03T17:24:52.855Z,98316.47
2022-08-03T17:28:48.763Z,98325.69
2022-08-03T17:30:15.966Z,98319.03
2022-08-03T17:32:52.622Z,98315.03
2022-08-03T17:35:24.483Z,98320.34
2022-08-03T17:38:03.703Z,98324.91
2022-08-03T17:40:32.710Z,98323.28
2022-08-03T17:43:00.994Z,98325.97
2022-08-03T17:45:51.907Z,98328.97
2022-08-03T17:48:18.470Z,98320.38
2022-08-03T17:51:15.544Z,98314.53
2022-08-03T17:54:18.373Z,98320.28
2022-08-03T17:57:06.323Z,98320.56
2022-08-03T18:00:27.425Z,98318.19
2022-08-03T18:03:20.949Z,98323.41
2022-08-03T18:06:08.976Z,98326.38
2022-08-03T18:08:46.242Z,98322.03
2022-08-03T18:11:19.814Z,98327.72
2022-08-03T18:13:57.716Z,98327.63
2022-08-03T18:16:30.075Z,98324.78
2022-08-03T18:19:00.439Z,98331.97
2022-08-03T18:22:01.998Z,98328.38
2022-08-03T18:24:25.666Z,98330.56
2022-08-03T18:26:55.482Z,98329.22
2022-08-03T18:29:29.904Z,98330.97
2022-08-03T18:32:03.214Z,98332.53
2022-08-03T18:34:34.275Z,98330.81
2022-08-03T18:37:04.353Z,98331.09
2022-08-03T18:39:49.287Z,98328.03
2022-08-03T18:42:19.749Z,98339.19
2022-08-03T18:44:55.878Z,98342.03
2022-08-03T18:47:52.866Z,98334.50
2022-08-03T18:50:48.162Z,98331.56
2022-08-03T18:54:03.569Z,98336.75
2022-08-03T18:56:14.647Z,98347.41
2022-08-03T18:59:02.478Z,98345.28
2022-08-03T19:05:04.625Z,98347.22
2022-08-03T19:07:36.962Z,98354.50
2022-08-03T19:10:17.179Z,98349.28
2022-08-03T19:12:51.245Z,98350.69
2022-08-03T19:15:36.416Z,98358.06
2022-08-03T19:18:11.857Z,98362.50
2022-08-03T19:20:51.526Z,98367.94
2022-08-03T19:28:56.654Z,98369.97
2022-08-03T19:31:34.869Z,98376.38
2022-08-03T19:34:15.560Z,98365.44
2022-08-03T19:36:49.756Z,98368.38
2022-08-03T19:39:22.534Z,98375.13
2022-08-03T19:42:08.010Z,98372.69
2022-08-03T19:44:50.505Z,98375.53
2022-08-03T19:47:50.867Z,98379.00
2022-08-03T19:50:20.733Z,98371.91
2022-08-03T19:52:55.859Z,98378.81
2022-08-03T19:55:49.219Z,98377.19
2022-08-03T19:58:24.438Z,98374.97
2022-08-03T20:01:19.150Z,98371.59
2022-08-03T20:03:56.794Z,98368.41
2022-08-03T20:06:26.699Z,98370.72
2022-08-03T20:08:55.395Z,98372.53
2022-08-03T20:15:06.882Z,98379.75
2022-08-03T20:17:56.617Z,98376.19
2022-08-03T20:20:37.634Z,98373.19
2022-08-03T20:23:17.478Z,98384.22
2022-08-03T20:25:59.789Z,98381.19
2022-08-03T20:28:49.750Z,98387.50
2022-08-03T20:31:32.543Z,98389.94
2022-08-03T20:34:03.446Z,98375.88
2022-08-03T20:36:36.281Z,98380.41
2022-08-03T20:39:07.718Z,98384.72
2022-08-03T20:41:35.937Z,98388.25
2022-08-03T20:44:04.364Z,98377.94
2022-08-03T20:46:44.124Z,98379.63
2022-08-03T20:49:25.529Z,98381.72
2022-08-03T20:51:53.690Z,98374.63
2022-08-03T20:54:29.494Z,98381.72
2022-08-03T20:57:04.182Z,98377.22
2022-08-03T20:59:47.057Z,98368.41
2022-08-03T21:02:30.112Z,98376.94
2022-08-03T21:04:57.867Z,98379.69
2022-08-03T21:10:15.475Z,98381.56
2022-08-03T21:13:12.285Z,98380.13
2022-08-03T21:13:15.443Z,98388.38
2022-08-03T21:16:12.890Z,98383.69
2022-08-03T21:18:45.793Z,98382.63
2022-08-03T21:21:15.145Z,98390.84
2022-08-03T21:23:48.798Z,98383.16
2022-08-03T21:26:18.241Z,98397.59
2022-08-03T21:28:46.717Z,98395.44
2022-08-03T21:31:14.150Z,98385.69
2022-08-03T21:33:49.643Z,98390.06
2022-08-03T21:36:16.558Z,98383.16
2022-08-03T21:38:44.004Z,98392.88
2022-08-03T21:41:22.595Z,98388.22
2022-08-03T21:43:49.129Z,98390.56
2022-08-03T21:46:19.370Z,98390.91
2022-08-03T21:48:51.285Z,98396.75
2022-08-03T21:51:20.030Z,98397.53
2022-08-03T21:54:02.491Z,98398.13
2022-08-03T21:56:36.793Z,98397.22
2022-08-03T21:59:08.633Z,98393.91
2022-08-03T22:01:36.454Z,98394.72
2022-08-03T22:04:11.867Z,98389.38
2022-08-03T22:06:42.299Z,98385.47
2022-08-03T22:09:12.334Z,98396.00
2022-08-03T22:11:39.794Z,98397.25
2022-08-03T22:14:06.457Z,98392.38
2022-08-03T22:16:35.206Z,98395.69
2022-08-03T22:19:01.752Z,98388.31
2022-08-03T22:21:35.771Z,98395.69
2022-08-03T22:24:05.220Z,98396.00
2022-08-03T22:26:35.228Z,98401.66
2022-08-03T22:29:07.325Z,98405.75
2022-08-03T22:31:58.011Z,98400.72
2022-08-03T22:34:26.690Z,98403.88
2022-08-03T22:36:57.188Z,98415.31
2022-08-03T22:39:29.532Z,98409.94
2022-08-03T22:41:59.927Z,98413.25
2022-08-03T22:44:27.532Z,98413.06
2022-08-03T22:46:58.024Z,98418.09
2022-08-03T22:49:27.043Z,98415.25
2022-08-03T22:51:56.005Z,98414.94
2022-08-03T22:54:23.166Z,98413.84
2022-08-03T22:56:50.862Z,98409.91
2022-08-03T22:59:40.437Z,98409.28
2022-08-03T23:02:20.498Z,98415.22
2022-08-03T23:04:55.036Z,98412.41
2022-08-03T23:07:31.489Z,98408.31
2022-08-03T23:10:00.469Z,98420.06
2022-08-03T23:12:29.646Z,98418.81
2022-08-03T23:15:00.885Z,98420.53
2022-08-03T23:17:30.833Z,98426.31
2022-08-03T23:20:05.111Z,98426.63
2022-08-03T23:22:35.780Z,98427.03
2022-08-03T23:25:04.671Z,98424.72
2022-08-03T23:27:33.347Z,98422.94
2022-08-03T23:30:01.567Z,98426.56
2022-08-03T23:32:30.893Z,98423.72
2022-08-03T23:35:20.971Z,98423.06
2022-08-03T23:38:04.657Z,98422.25
2022-08-03T23:40:36.820Z,98428.78
2022-08-03T23:43:05.097Z,98431.00
2022-08-03T23:45:35.024Z,98424.81
2022-08-03T23:48:01.584Z,98432.94
2022-08-03T23:50:40.359Z,98429.63
2022-08-03T23:53:41.290Z,98432.41
2022-08-03T23:56:37.141Z,98429.69
2022-08-03T23:59:16.716Z,98432.47
